TAF Text Data
IDs:
Format:
Raw Decoded Include METAR

Data at: 1836 UTC 07 Dec 2021

KDSM 071730Z 0718/0818 20014G21KT P6SM FEW110 SCT250
  FM072300 18008KT P6SM BKN200
  FM080300 23006KT P6SM FEW250
  FM080900 31005KT P6SM FEW250


KALO 071730Z 0718/0818 17013KT P6SM OVC070
  FM072300 15006KT P6SM BKN150
  FM080600 32005KT P6SM SCT200


KMCW 071730Z 0718/0818 17015KT P6SM OVC050
  TEMPO 0718/0719 4SM -SN BR
  FM072300 14008KT P6SM BKN080
  FM080300 VRB04KT P6SM BKN200
  FM080600 31006KT P6SM SCT250


KFOD 071730Z 0718/0818 20014G20KT P6SM OVC070
  FM072100 19011KT P6SM BKN200
  FM080200 VRB03KT P6SM BKN150
  FM081600 14006KT P6SM FEW250


KOTM 071730Z 0718/0818 17014KT P6SM BKN110
  FM072300 16008KT P6SM BKN250
  FM080600 23008KT P6SM SCT100 BKN200
  FM081100 30006KT P6SM SCT250